createdAt,value
2023-04-17T00:00:27.000Z,9.71
2023-04-17T00:01:27.000Z,9.71
2023-04-17T00:02:28.000Z,9.72
2023-04-17T00:03:27.000Z,9.71
2023-04-17T00:04:27.000Z,9.71
2023-04-17T00:05:27.000Z,9.69
2023-04-17T00:06:27.000Z,9.69
2023-04-17T00:07:27.000Z,9.66
2023-04-17T00:08:26.000Z,9.68
2023-04-17T00:09:27.000Z,9.69
2023-04-17T00:10:27.000Z,9.68
2023-04-17T00:11:26.000Z,9.68
2023-04-17T00:12:26.000Z,9.66
2023-04-17T00:13:26.000Z,9.68
2023-04-17T00:14:27.000Z,9.69
2023-04-17T00:15:27.000Z,9.65
2023-04-17T00:16:27.000Z,9.64
2023-04-17T00:17:27.000Z,9.64
2023-04-17T00:18:27.000Z,9.66
2023-04-17T00:19:27.000Z,9.66
2023-04-17T00:20:26.000Z,9.66
2023-04-17T00:21:28.000Z,9.65
2023-04-17T00:22:26.000Z,9.66
2023-04-17T00:23:27.000Z,9.64
2023-04-17T00:24:26.000Z,9.62
2023-04-17T00:25:26.000Z,9.64
2023-04-17T00:26:27.000Z,9.64
2023-04-17T00:27:26.000Z,9.64
2023-04-17T00:28:27.000Z,9.62
2023-04-17T00:29:27.000Z,9.57
2023-04-17T00:30:27.000Z,9.54
2023-04-17T00:31:26.000Z,9.58
2023-04-17T00:32:26.000Z,9.57
2023-04-17T00:33:26.000Z,9.57
2023-04-17T00:34:27.000Z,9.55
2023-04-17T00:35:27.000Z,9.54
2023-04-17T00:36:29.000Z,9.54
2023-04-17T00:37:26.000Z,9.51
2023-04-17T00:38:26.000Z,9.48
2023-04-17T00:39:26.000Z,9.50
2023-04-17T00:40:27.000Z,9.50
2023-04-17T00:41:27.000Z,9.50
2023-04-17T00:42:27.000Z,9.53
2023-04-17T00:43:27.000Z,9.51
2023-04-17T00:44:27.000Z,9.48
2023-04-17T00:45:27.000Z,9.45
2023-04-17T00:46:26.000Z,9.44
2023-04-17T00:47:27.000Z,9.43
2023-04-17T00:48:27.000Z,9.38
2023-04-17T00:49:28.000Z,9.38
2023-04-17T00:50:27.000Z,9.37
2023-04-17T00:51:27.000Z,9.35
2023-04-17T00:52:28.000Z,9.31
2023-04-17T00:53:30.000Z,9.30
2023-04-17T00:54:28.000Z,9.33
2023-04-17T00:55:29.000Z,9.33
2023-04-17T00:56:27.000Z,9.33
2023-04-17T00:57:26.000Z,9.33
2023-04-17T00:58:26.000Z,9.33
2023-04-17T00:59:27.000Z,9.34
2023-04-17T01:00:26.000Z,9.30
2023-04-17T01:01:26.000Z,9.27
2023-04-17T01:02:27.000Z,9.27
2023-04-17T01:03:30.000Z,9.29
2023-04-17T01:04:26.000Z,9.30
2023-04-17T01:05:26.000Z,9.29
2023-04-17T01:06:27.000Z,9.27
2023-04-17T01:07:28.000Z,9.29
2023-04-17T01:08:27.000Z,9.29
2023-04-17T01:09:26.000Z,9.30
2023-04-17T01:10:26.000Z,9.26
2023-04-17T01:11:27.000Z,9.31
2023-04-17T01:12:26.000Z,9.30
2023-04-17T01:13:26.000Z,9.26
2023-04-17T01:14:26.000Z,9.24
2023-04-17T01:15:26.000Z,9.27
2023-04-17T01:16:29.000Z,9.27
2023-04-17T01:17:26.000Z,9.30
2023-04-17T01:18:26.000Z,9.27
2023-04-17T01:19:27.000Z,9.27
2023-04-17T01:20:30.000Z,9.23
2023-04-17T01:21:26.000Z,9.24
2023-04-17T01:22:26.000Z,9.26
2023-04-17T01:23:27.000Z,9.26
2023-04-17T01:24:26.000Z,9.26
2023-04-17T01:25:27.000Z,9.27
2023-04-17T01:26:29.000Z,9.27
2023-04-17T01:27:27.000Z,9.27
2023-04-17T01:28:26.000Z,9.26
2023-04-17T01:29:27.000Z,9.24
2023-04-17T01:30:26.000Z,9.20
2023-04-17T01:31:28.000Z,9.23
2023-04-17T01:32:27.000Z,9.24
2023-04-17T01:33:26.000Z,9.22
2023-04-17T01:34:26.000Z,9.22
2023-04-17T01:35:26.000Z,9.26
2023-04-17T01:36:27.000Z,9.22
2023-04-17T01:37:26.000Z,9.24
2023-04-17T01:38:26.000Z,9.24
2023-04-17T01:39:26.000Z,9.26
2023-04-17T01:40:26.000Z,9.26
2023-04-17T01:41:26.000Z,9.23
2023-04-17T01:42:27.000Z,9.23
2023-04-17T01:43:27.000Z,9.19
2023-04-17T01:44:26.000Z,9.20
2023-04-17T01:45:26.000Z,9.23
2023-04-17T01:46:26.000Z,9.23
2023-04-17T01:47:26.000Z,9.23
2023-04-17T01:48:26.000Z,9.24
2023-04-17T01:49:27.000Z,9.24
2023-04-17T01:50:27.000Z,9.24
2023-04-17T01:51:26.000Z,9.24
2023-04-17T01:52:26.000Z,9.29
2023-04-17T01:53:29.000Z,9.23
2023-04-17T01:54:26.000Z,9.24
2023-04-17T01:55:26.000Z,9.23
2023-04-17T01:56:26.000Z,9.26
2023-04-17T01:57:27.000Z,9.23
2023-04-17T01:58:26.000Z,9.23
2023-04-17T01:59:26.000Z,9.23
2023-04-17T02:00:26.000Z,9.22
2023-04-17T02:01:26.000Z,9.22
2023-04-17T02:02:26.000Z,9.22
2023-04-17T02:03:26.000Z,9.20
2023-04-17T02:04:26.000Z,9.23
2023-04-17T02:05:26.000Z,9.20
2023-04-17T02:06:26.000Z,9.20
2023-04-17T02:07:26.000Z,9.16
2023-04-17T02:08:26.000Z,9.16
2023-04-17T02:09:26.000Z,9.13
2023-04-17T02:10:26.000Z,9.19
2023-04-17T02:11:26.000Z,9.20
2023-04-17T02:12:26.000Z,9.19
2023-04-17T02:13:26.000Z,9.20
2023-04-17T02:14:28.000Z,9.17
2023-04-17T02:15:26.000Z,9.17
2023-04-17T02:16:27.000Z,9.13
2023-04-17T02:17:26.000Z,9.16
2023-04-17T02:18:27.000Z,9.16
2023-04-17T02:19:26.000Z,9.16
2023-04-17T02:20:26.000Z,9.13
2023-04-17T02:21:27.000Z,9.13
2023-04-17T02:22:26.000Z,9.17
2023-04-17T02:23:26.000Z,9.17
2023-04-17T02:24:27.000Z,9.17
2023-04-17T02:25:27.000Z,9.17
2023-04-17T02:26:26.000Z,9.17
2023-04-17T02:27:27.000Z,9.19
2023-04-17T02:28:26.000Z,9.19
2023-04-17T02:29:26.000Z,9.19
2023-04-17T02:30:26.000Z,9.22
2023-04-17T02:31:26.000Z,9.16
2023-04-17T02:32:27.000Z,9.14
2023-04-17T02:33:26.000Z,9.16
2023-04-17T02:34:26.000Z,9.16
2023-04-17T02:35:28.000Z,9.17
2023-04-17T02:36:26.000Z,9.17
2023-04-17T02:37:26.000Z,9.17
2023-04-17T02:38:28.000Z,9.20
2023-04-17T02:39:26.000Z,9.19
2023-04-17T02:40:26.000Z,9.19
2023-04-17T02:41:26.000Z,9.19
2023-04-17T02:42:26.000Z,9.16
2023-04-17T02:43:26.000Z,9.14
2023-04-17T02:44:26.000Z,9.13
2023-04-17T02:45:26.000Z,9.13
2023-04-17T02:46:26.000Z,9.13
2023-04-17T02:47:26.000Z,9.12
2023-04-17T02:48:26.000Z,9.10
2023-04-17T02:49:26.000Z,9.13
2023-04-17T02:50:26.000Z,9.12
2023-04-17T02:51:26.000Z,9.07
2023-04-17T02:52:29.000Z,9.09
2023-04-17T02:53:26.000Z,9.12
2023-04-17T02:54:26.000Z,9.12
2023-04-17T02:55:26.000Z,9.12
2023-04-17T02:56:26.000Z,9.12
2023-04-17T02:57:26.000Z,9.07
2023-04-17T02:58:26.000Z,9.12
2023-04-17T02:59:26.000Z,9.06
2023-04-17T03:00:26.000Z,9.07
2023-04-17T03:01:26.000Z,9.09
2023-04-17T03:02:27.000Z,9.06
2023-04-17T03:03:29.000Z,9.04
2023-04-17T03:04:26.000Z,9.06
2023-04-17T03:05:28.000Z,9.03
2023-04-17T03:06:26.000Z,9.06
2023-04-17T03:07:26.000Z,9.06
2023-04-17T03:08:28.000Z,9.07
2023-04-17T03:09:26.000Z,9.07
2023-04-17T03:10:26.000Z,9.07
2023-04-17T03:11:26.000Z,9.09
2023-04-17T03:12:26.000Z,9.06
2023-04-17T03:13:26.000Z,9.03
2023-04-17T03:14:26.000Z,9.04
2023-04-17T03:15:25.000Z,9.06
2023-04-17T03:16:26.000Z,9.02
2023-04-17T03:17:26.000Z,8.98
2023-04-17T03:18:26.000Z,9.03
2023-04-17T03:19:26.000Z,9.03
2023-04-17T03:20:26.000Z,9.04
2023-04-17T03:21:26.000Z,9.04
2023-04-17T03:22:26.000Z,9.03
2023-04-17T03:23:25.000Z,9.03
2023-04-17T03:24:26.000Z,9.04
2023-04-17T03:25:26.000Z,8.99
2023-04-17T03:26:26.000Z,9.02
2023-04-17T03:27:26.000Z,9.04
2023-04-17T03:28:26.000Z,9.03
2023-04-17T03:29:26.000Z,9.04
2023-04-17T03:30:26.000Z,9.06
2023-04-17T03:31:26.000Z,9.04
2023-04-17T03:32:26.000Z,9.06
2023-04-17T03:33:26.000Z,9.06
2023-04-17T03:34:27.000Z,9.07
2023-04-17T03:35:26.000Z,9.09
2023-04-17T03:36:26.000Z,9.06
2023-04-17T03:37:26.000Z,9.10
2023-04-17T03:38:26.000Z,9.06
2023-04-17T03:39:26.000Z,9.07
2023-04-17T03:40:26.000Z,9.10
2023-04-17T03:41:26.000Z,9.09
2023-04-17T03:42:26.000Z,9.04
2023-04-17T03:43:26.000Z,9.07
2023-04-17T03:44:26.000Z,9.04
2023-04-17T03:45:26.000Z,9.07
2023-04-17T03:46:26.000Z,9.04
2023-04-17T03:47:26.000Z,9.04
2023-04-17T03:48:26.000Z,9.06
2023-04-17T03:49:26.000Z,9.04
2023-04-17T03:50:26.000Z,9.00
2023-04-17T03:51:26.000Z,9.02
2023-04-17T03:52:27.000Z,9.02
2023-04-17T03:53:25.000Z,9.03
2023-04-17T03:54:26.000Z,9.03
2023-04-17T03:55:26.000Z,9.02
2023-04-17T03:56:26.000Z,9.02
2023-04-17T03:57:25.000Z,9.00
2023-04-17T03:58:26.000Z,9.00
2023-04-17T03:59:27.000Z,8.99
2023-04-17T04:00:27.000Z,8.95
2023-04-17T04:01:27.000Z,8.96
2023-04-17T04:02:26.000Z,9.00
2023-04-17T04:03:27.000Z,8.99
2023-04-17T04:04:26.000Z,9.00
2023-04-17T04:05:26.000Z,9.00
2023-04-17T04:06:28.000Z,9.02
2023-04-17T04:07:26.000Z,9.03
2023-04-17T04:08:26.000Z,9.04
2023-04-17T04:09:26.000Z,9.03
2023-04-17T04:10:27.000Z,9.00
2023-04-17T04:11:26.000Z,8.96
2023-04-17T04:12:26.000Z,8.96
2023-04-17T04:13:26.000Z,8.91
2023-04-17T04:14:26.000Z,8.95
2023-04-17T04:15:26.000Z,8.98
2023-04-17T04:16:26.000Z,8.95
2023-04-17T04:17:26.000Z,8.91
2023-04-17T04:18:26.000Z,8.91
2023-04-17T04:19:26.000Z,8.92
2023-04-17T04:20:26.000Z,8.92
2023-04-17T04:21:27.000Z,8.86
2023-04-17T04:22:28.000Z,8.88
2023-04-17T04:23:27.000Z,8.89
2023-04-17T04:24:27.000Z,8.91
2023-04-17T04:25:27.000Z,8.88
2023-04-17T04:26:27.000Z,8.91
2023-04-17T04:27:31.000Z,8.89
2023-04-17T04:28:27.000Z,8.89
2023-04-17T04:29:26.000Z,8.92
2023-04-17T04:30:29.000Z,8.89
2023-04-17T04:31:29.000Z,8.86
2023-04-17T04:32:26.000Z,8.91
2023-04-17T04:33:26.000Z,8.93
2023-04-17T04:34:28.000Z,8.92
2023-04-17T04:35:29.000Z,8.92
2023-04-17T04:36:28.000Z,8.92
2023-04-17T04:37:28.000Z,8.92
2023-04-17T04:38:29.000Z,8.91
2023-04-17T04:39:28.000Z,8.91
2023-04-17T04:40:27.000Z,8.89
2023-04-17T04:41:28.000Z,8.91
2023-04-17T04:42:27.000Z,8.86
2023-04-17T04:43:27.000Z,8.88
2023-04-17T04:44:26.000Z,8.86
2023-04-17T04:45:26.000Z,8.89
2023-04-17T04:46:27.000Z,8.91
2023-04-17T04:47:26.000Z,8.92
2023-04-17T04:48:27.000Z,8.92
2023-04-17T04:49:26.000Z,8.93
2023-04-17T04:50:26.000Z,8.95
2023-04-17T04:51:26.000Z,8.98
2023-04-17T04:52:26.000Z,8.93
2023-04-17T04:53:26.000Z,8.95
2023-04-17T04:54:26.000Z,8.98
2023-04-17T04:55:26.000Z,8.96
2023-04-17T04:56:27.000Z,8.96
2023-04-17T04:57:26.000Z,8.96
2023-04-17T04:58:28.000Z,8.96
2023-04-17T04:59:26.000Z,8.98
2023-04-17T05:00:26.000Z,8.91
2023-04-17T05:01:26.000Z,8.86
2023-04-17T05:02:26.000Z,8.88
2023-04-17T05:03:26.000Z,8.91
2023-04-17T05:04:26.000Z,8.89
2023-04-17T05:05:26.000Z,8.92
2023-04-17T05:06:26.000Z,8.95
2023-04-17T05:07:26.000Z,8.93
2023-04-17T05:08:26.000Z,8.95
2023-04-17T05:09:26.000Z,8.98
2023-04-17T05:10:26.000Z,8.96
2023-04-17T05:11:26.000Z,8.95
2023-04-17T05:12:26.000Z,8.98
2023-04-17T05:13:28.000Z,8.96
2023-04-17T05:14:26.000Z,8.98
2023-04-17T05:15:26.000Z,8.98
2023-04-17T05:16:26.000Z,8.95
2023-04-17T05:17:26.000Z,8.98
2023-04-17T05:18:26.000Z,8.92
2023-04-17T05:19:26.000Z,8.95
2023-04-17T05:20:26.000Z,8.99
2023-04-17T05:21:26.000Z,8.99
2023-04-17T05:22:26.000Z,8.98
2023-04-17T05:23:26.000Z,8.99
2023-04-17T05:24:26.000Z,8.98
2023-04-17T05:25:26.000Z,8.98
2023-04-17T05:26:26.000Z,8.98
2023-04-17T05:27:26.000Z,9.00
2023-04-17T05:28:28.000Z,8.99
2023-04-17T05:29:26.000Z,8.92
2023-04-17T05:30:26.000Z,8.95
2023-04-17T05:31:26.000Z,8.92
2023-04-17T05:32:27.000Z,8.92
2023-04-17T05:33:26.000Z,8.96
2023-04-17T05:34:26.000Z,8.96
2023-04-17T05:35:26.000Z,9.00
2023-04-17T05:36:26.000Z,8.96
2023-04-17T05:37:26.000Z,9.00
2023-04-17T05:38:26.000Z,9.02
2023-04-17T05:39:26.000Z,8.99
2023-04-17T05:40:26.000Z,8.99
2023-04-17T05:41:27.000Z,9.00
2023-04-17T05:42:26.000Z,9.02
2023-04-17T05:43:26.000Z,9.00
2023-04-17T05:44:26.000Z,9.02
2023-04-17T05:45:26.000Z,9.03
2023-04-17T05:46:26.000Z,9.07
2023-04-17T05:47:26.000Z,9.02
2023-04-17T05:48:27.000Z,9.02
2023-04-17T05:49:26.000Z,9.02
2023-04-17T05:50:26.000Z,9.04
2023-04-17T05:51:26.000Z,9.02
2023-04-17T05:52:26.000Z,9.04
2023-04-17T05:53:26.000Z,9.04
2023-04-17T05:54:28.000Z,9.04
2023-04-17T05:55:26.000Z,9.06
2023-04-17T05:56:26.000Z,9.06
2023-04-17T05:57:26.000Z,9.07
2023-04-17T05:58:26.000Z,9.10
2023-04-17T05:59:26.000Z,9.07
2023-04-17T06:00:26.000Z,9.09
2023-04-17T06:01:28.000Z,9.12
2023-04-17T06:02:26.000Z,9.09
2023-04-17T06:03:26.000Z,9.07
2023-04-17T06:04:27.000Z,9.10
2023-04-17T06:05:26.000Z,9.10
2023-04-17T06:06:26.000Z,9.09
2023-04-17T06:07:26.000Z,9.14
2023-04-17T06:08:26.000Z,9.10
2023-04-17T06:09:26.000Z,9.07
2023-04-17T06:10:26.000Z,9.10
2023-04-17T06:11:26.000Z,9.10
2023-04-17T06:12:26.000Z,9.12
2023-04-17T06:13:26.000Z,9.14
2023-04-17T06:14:26.000Z,9.10
2023-04-17T06:15:26.000Z,9.12
2023-04-17T06:16:26.000Z,9.13
2023-04-17T06:17:26.000Z,9.16
2023-04-17T06:18:26.000Z,9.13
2023-04-17T06:19:26.000Z,9.13
2023-04-17T06:20:26.000Z,9.14
2023-04-17T06:21:25.000Z,9.17
2023-04-17T06:22:26.000Z,9.17
2023-04-17T06:23:26.000Z,9.19
2023-04-17T06:24:26.000Z,9.22
2023-04-17T06:25:26.000Z,9.24
2023-04-17T06:26:26.000Z,9.27
2023-04-17T06:27:26.000Z,9.26
2023-04-17T06:28:26.000Z,9.27
2023-04-17T06:29:26.000Z,9.30
2023-04-17T06:30:26.000Z,9.33
2023-04-17T06:31:26.000Z,9.35
2023-04-17T06:32:25.000Z,9.37
2023-04-17T06:33:26.000Z,9.40
2023-04-17T06:34:25.000Z,9.41
2023-04-17T06:35:26.000Z,9.47
2023-04-17T06:36:26.000Z,9.50
2023-04-17T06:37:25.000Z,9.50
2023-04-17T06:38:25.000Z,9.53
2023-04-17T06:39:26.000Z,9.48
2023-04-17T06:40:26.000Z,9.51
2023-04-17T06:41:25.000Z,9.55
2023-04-17T06:42:26.000Z,9.58
2023-04-17T06:43:25.000Z,9.58
2023-04-17T06:44:26.000Z,9.58
2023-04-17T06:45:26.000Z,9.62
2023-04-17T06:46:25.000Z,9.66
2023-04-17T06:47:25.000Z,9.66
2023-04-17T06:48:25.000Z,9.69
2023-04-17T06:49:25.000Z,9.71
2023-04-17T06:50:26.000Z,9.75
2023-04-17T06:51:27.000Z,9.76
2023-04-17T06:52:25.000Z,9.76
2023-04-17T06:53:25.000Z,9.82
2023-04-17T06:54:26.000Z,9.80
2023-04-17T06:55:26.000Z,9.82
2023-04-17T06:56:25.000Z,9.82
2023-04-17T06:57:26.000Z,9.81
2023-04-17T06:58:26.000Z,9.86
2023-04-17T06:59:25.000Z,9.85
2023-04-17T07:00:26.000Z,9.86
2023-04-17T07:01:28.000Z,9.88
2023-04-17T07:02:26.000Z,9.91
2023-04-17T07:03:26.000Z,9.92
2023-04-17T07:04:26.000Z,9.93
2023-04-17T07:05:26.000Z,9.91
2023-04-17T07:06:27.000Z,9.93
2023-04-17T07:07:29.000Z,9.95
2023-04-17T07:08:26.000Z,9.96
2023-04-17T07:09:26.000Z,9.96
2023-04-17T07:10:26.000Z,9.96
2023-04-17T07:11:26.000Z,9.96
2023-04-17T07:12:26.000Z,9.98
2023-04-17T07:13:31.000Z,10.01
2023-04-17T07:14:26.000Z,10.02
2023-04-17T07:15:29.000Z,10.01
2023-04-17T07:16:26.000Z,10.01
2023-04-17T07:17:26.000Z,10.03
2023-04-17T07:18:28.000Z,10.06
2023-04-17T07:19:26.000Z,10.03
2023-04-17T07:20:26.000Z,10.05
2023-04-17T07:21:26.000Z,10.02
2023-04-17T07:22:26.000Z,10.05
2023-04-17T07:23:26.000Z,10.06
2023-04-17T07:24:26.000Z,10.08
2023-04-17T07:25:26.000Z,10.08
2023-04-17T07:26:26.000Z,10.10
2023-04-17T07:27:26.000Z,10.09
2023-04-17T07:28:26.000Z,10.09
2023-04-17T07:29:26.000Z,10.12
2023-04-17T07:30:27.000Z,10.14
2023-04-17T07:31:27.000Z,10.14
2023-04-17T07:32:26.000Z,10.13
2023-04-17T07:33:26.000Z,10.17
2023-04-17T07:34:29.000Z,10.16
2023-04-17T07:35:26.000Z,10.19
2023-04-17T07:36:26.000Z,10.20
2023-04-17T07:37:26.000Z,10.24
2023-04-17T07:38:26.000Z,10.23
2023-04-17T07:39:28.000Z,10.26
2023-04-17T07:40:26.000Z,10.27
2023-04-17T07:41:25.000Z,10.33
2023-04-17T07:42:27.000Z,10.33
2023-04-17T07:43:26.000Z,10.36
2023-04-17T07:44:26.000Z,10.34
2023-04-17T07:45:26.000Z,10.32
2023-04-17T07:46:26.000Z,10.36
2023-04-17T07:47:26.000Z,10.41
2023-04-17T07:48:26.000Z,10.39
2023-04-17T07:49:26.000Z,10.39
2023-04-17T07:50:26.000Z,10.40
2023-04-17T07:51:27.000Z,10.43
2023-04-17T07:52:26.000Z,10.43
2023-04-17T07:53:27.000Z,10.44
2023-04-17T07:54:26.000Z,10.48
2023-04-17T07:55:26.000Z,10.48
2023-04-17T07:56:26.000Z,10.51
2023-04-17T07:57:26.000Z,10.56
2023-04-17T07:58:26.000Z,10.54
2023-04-17T07:59:26.000Z,10.57
2023-04-17T08:00:26.000Z,10.59
2023-04-17T08:01:26.000Z,10.61
2023-04-17T08:02:25.000Z,10.63
2023-04-17T08:03:25.000Z,10.65
2023-04-17T08:04:25.000Z,10.68
2023-04-17T08:05:25.000Z,10.77
2023-04-17T08:06:26.000Z,10.71
2023-04-17T08:07:25.000Z,10.74
2023-04-17T08:08:25.000Z,10.74
2023-04-17T08:09:26.000Z,10.78
2023-04-17T08:10:26.000Z,10.81
2023-04-17T08:11:26.000Z,10.82
2023-04-17T08:12:26.000Z,10.84
2023-04-17T08:13:28.000Z,10.90
2023-04-17T08:14:25.000Z,10.92
2023-04-17T08:15:26.000Z,10.94
2023-04-17T08:16:25.000Z,10.91
2023-04-17T08:17:28.000Z,10.91
2023-04-17T08:18:25.000Z,11.01
2023-04-17T08:19:26.000Z,10.96
2023-04-17T08:20:26.000Z,11.01
2023-04-17T08:21:25.000Z,11.02
2023-04-17T08:22:27.000Z,11.02
2023-04-17T08:23:25.000Z,11.03
2023-04-17T08:24:25.000Z,11.09
2023-04-17T08:25:26.000Z,11.13
2023-04-17T08:26:26.000Z,11.13
2023-04-17T08:27:25.000Z,11.15
2023-04-17T08:28:26.000Z,11.16
2023-04-17T08:29:26.000Z,11.18
2023-04-17T08:30:25.000Z,11.19
2023-04-17T08:31:26.000Z,11.21
2023-04-17T08:32:26.000Z,11.21
2023-04-17T08:33:26.000Z,11.19
2023-04-17T08:34:26.000Z,11.22
2023-04-17T08:35:26.000Z,11.22
2023-04-17T08:36:26.000Z,11.23
2023-04-17T08:37:27.000Z,11.26
2023-04-17T08:38:28.000Z,11.27
2023-04-17T08:39:26.000Z,11.26
2023-04-17T08:40:26.000Z,11.25
2023-04-17T08:41:33.000Z,11.27
2023-04-17T08:42:26.000Z,11.26
2023-04-17T08:43:27.000Z,11.26
2023-04-17T08:44:26.000Z,11.27
2023-04-17T08:45:26.000Z,11.33
2023-04-17T08:46:28.000Z,11.32
2023-04-17T08:47:27.000Z,11.35
2023-04-17T08:48:26.000Z,11.42
2023-04-17T08:49:27.000Z,11.43
2023-04-17T08:50:26.000Z,11.42
2023-04-17T08:51:26.000Z,11.43
2023-04-17T08:52:26.000Z,11.43
2023-04-17T08:53:26.000Z,11.46
2023-04-17T08:54:26.000Z,11.47
2023-04-17T08:55:28.000Z,11.50
2023-04-17T08:56:27.000Z,11.56
2023-04-17T08:57:26.000Z,11.56
2023-04-17T08:58:31.000Z,11.60
2023-04-17T08:59:26.000Z,11.61
2023-04-17T09:00:27.000Z,11.61
2023-04-17T09:01:28.000Z,11.73
2023-04-17T09:02:25.000Z,11.66
2023-04-17T09:03:37.000Z,11.76
2023-04-17T09:04:35.000Z,11.78
2023-04-17T09:05:29.000Z,11.78
2023-04-17T09:06:25.000Z,11.76
2023-04-17T09:07:27.000Z,11.77
2023-04-17T09:08:27.000Z,11.78
2023-04-17T09:09:45.000Z,11.83
2023-04-17T09:10:34.000Z,11.78
2023-04-17T09:11:26.000Z,11.92
2023-04-17T09:12:25.000Z,11.97
2023-04-17T09:13:27.000Z,11.98
2023-04-17T09:14:28.000Z,11.94
2023-04-17T09:15:25.000Z,11.90
2023-04-17T09:16:27.000Z,12.00
2023-04-17T09:17:32.000Z,12.00
2023-04-17T09:18:27.000Z,12.02
2023-04-17T09:19:26.000Z,12.15
2023-04-17T09:20:26.000Z,12.18
2023-04-17T09:21:26.000Z,12.17
2023-04-17T09:22:25.000Z,12.21
2023-04-17T09:23:28.000Z,12.29
2023-04-17T09:24:31.000Z,12.29
2023-04-17T09:25:27.000Z,12.27
2023-04-17T09:26:30.000Z,12.33
2023-04-17T09:27:27.000Z,12.42
2023-04-17T09:28:28.000Z,12.39
2023-04-17T09:29:25.000Z,12.49
2023-04-17T09:30:25.000Z,12.55
2023-04-17T09:31:27.000Z,12.70
2023-04-17T09:32:27.000Z,12.73
2023-04-17T09:33:26.000Z,12.70
2023-04-17T09:34:26.000Z,12.67
2023-04-17T09:35:25.000Z,12.74
2023-04-17T09:36:28.000Z,12.74
2023-04-17T09:37:45.000Z,12.70
2023-04-17T09:38:35.000Z,12.72
2023-04-17T09:39:25.000Z,12.67
2023-04-17T09:40:35.000Z,12.67
2023-04-17T09:41:33.000Z,12.70
2023-04-17T09:42:26.000Z,12.73
2023-04-17T09:43:39.000Z,12.76
2023-04-17T09:44:27.000Z,12.79
2023-04-17T09:45:31.000Z,12.80
2023-04-17T09:46:44.000Z,12.83
2023-04-17T09:47:28.000Z,12.88
2023-04-17T09:48:26.000Z,12.79
2023-04-17T09:49:31.000Z,12.86
2023-04-17T09:50:26.000Z,12.80
2023-04-17T09:51:26.000Z,12.84
2023-04-17T09:52:27.000Z,12.90
2023-04-17T09:53:26.000Z,12.91
2023-04-17T09:54:31.000Z,12.96
2023-04-17T09:55:29.000Z,12.97
2023-04-17T09:56:26.000Z,12.97
2023-04-17T09:57:25.000Z,12.84
2023-04-17T09:58:25.000Z,12.86
2023-04-17T09:59:26.000Z,12.87
2023-04-17T10:00:26.000Z,12.87
2023-04-17T10:01:25.000Z,12.84
2023-04-17T10:02:26.000Z,12.91
2023-04-17T10:03:25.000Z,12.93
2023-04-17T10:04:27.000Z,12.96
2023-04-17T10:05:27.000Z,12.90
2023-04-17T10:06:26.000Z,12.97
2023-04-17T10:07:26.000Z,13.00
2023-04-17T10:08:26.000Z,12.99
2023-04-17T10:09:25.000Z,13.06
2023-04-17T10:10:29.000Z,13.07
2023-04-17T10:11:31.000Z,12.93
2023-04-17T10:12:26.000Z,12.93
2023-04-17T10:13:26.000Z,12.96
2023-04-17T10:14:29.000Z,12.99
2023-04-17T10:15:26.000Z,12.91
2023-04-17T10:16:36.000Z,12.97
2023-04-17T10:17:31.000Z,12.97
2023-04-17T10:18:26.000Z,13.06
2023-04-17T10:19:34.000Z,13.11
2023-04-17T10:20:41.000Z,13.13
2023-04-17T10:21:26.000Z,13.17
2023-04-17T10:22:29.000Z,13.14
2023-04-17T10:23:31.000Z,13.08
2023-04-17T10:24:26.000Z,13.11
2023-04-17T10:25:26.000Z,13.15
2023-04-17T10:26:32.000Z,13.11
2023-04-17T10:27:41.000Z,13.10
2023-04-17T10:28:45.000Z,13.07
2023-04-17T10:29:48.000Z,13.07
2023-04-17T10:30:35.000Z,13.10
2023-04-17T10:31:35.000Z,13.04
2023-04-17T10:32:30.000Z,13.10
2023-04-17T10:33:26.000Z,12.99
2023-04-17T10:34:37.000Z,12.99
2023-04-17T10:35:41.000Z,13.06
2023-04-17T10:36:36.000Z,12.97
2023-04-17T10:37:36.000Z,12.96
2023-04-17T10:38:31.000Z,12.83
2023-04-17T10:39:26.000Z,12.90
2023-04-17T10:40:30.000Z,12.93
2023-04-17T10:41:26.000Z,12.93
2023-04-17T10:42:30.000Z,13.00
2023-04-17T10:43:26.000Z,12.99
2023-04-17T10:44:26.000Z,12.97
2023-04-17T10:45:46.000Z,12.90
2023-04-17T10:46:28.000Z,12.88
2023-04-17T10:47:30.000Z,12.86
2023-04-17T10:48:36.000Z,12.80
2023-04-17T10:49:26.000Z,12.70
2023-04-17T10:50:27.000Z,12.64
2023-04-17T10:51:42.000Z,12.60
2023-04-17T10:52:35.000Z,12.64
2023-04-17T10:53:36.000Z,12.72
2023-04-17T10:54:26.000Z,12.62
2023-04-17T10:55:26.000Z,12.63
2023-04-17T10:56:34.000Z,12.64
2023-04-17T10:57:36.000Z,12.72
2023-04-17T10:58:28.000Z,12.64
2023-04-17T10:59:29.000Z,12.62
2023-04-17T11:00:49.000Z,12.55
2023-04-17T11:01:36.000Z,12.62
2023-04-17T11:02:32.000Z,12.63
2023-04-17T11:03:28.000Z,12.67
2023-04-17T11:04:27.000Z,12.69
2023-04-17T11:05:26.000Z,12.69
2023-04-17T11:06:29.000Z,12.59
2023-04-17T11:07:26.000Z,12.64
2023-04-17T11:08:25.000Z,12.56
2023-04-17T11:09:27.000Z,12.57
2023-04-17T11:10:26.000Z,12.57
2023-04-17T11:11:25.000Z,12.64
2023-04-17T11:12:29.000Z,12.60
2023-04-17T11:13:30.000Z,12.56
2023-04-17T11:14:25.000Z,12.62
2023-04-17T11:15:28.000Z,12.63
2023-04-17T11:16:25.000Z,12.64
2023-04-17T11:17:25.000Z,12.62
2023-04-17T11:18:25.000Z,12.59
2023-04-17T11:19:25.000Z,12.57
2023-04-17T11:20:28.000Z,12.62
2023-04-17T11:21:25.000Z,12.66
2023-04-17T11:22:32.000Z,12.64
2023-04-17T11:23:28.000Z,12.66
2023-04-17T11:24:27.000Z,12.64
2023-04-17T11:25:27.000Z,12.66
2023-04-17T11:26:25.000Z,12.67
2023-04-17T11:27:26.000Z,12.70
2023-04-17T11:28:26.000Z,12.72
2023-04-17T11:29:26.000Z,12.73
2023-04-17T11:30:28.000Z,12.67
2023-04-17T11:31:27.000Z,12.69
2023-04-17T11:32:33.000Z,12.72
2023-04-17T11:33:33.000Z,12.73
2023-04-17T11:34:26.000Z,12.80
2023-04-17T11:35:32.000Z,12.81
2023-04-17T11:36:26.000Z,12.80
2023-04-17T11:37:26.000Z,12.77
2023-04-17T11:38:26.000Z,12.79
2023-04-17T11:39:32.000Z,12.87
2023-04-17T11:40:29.000Z,12.84
2023-04-17T11:41:35.000Z,12.83
2023-04-17T11:42:26.000Z,12.84
2023-04-17T11:43:28.000Z,12.90
2023-04-17T11:44:27.000Z,12.90
2023-04-17T11:45:30.000Z,12.87
2023-04-17T11:46:28.000Z,12.91
2023-04-17T11:47:26.000Z,12.91
2023-04-17T11:48:28.000Z,12.91
2023-04-17T11:49:37.000Z,12.93
2023-04-17T11:50:30.000Z,12.93
2023-04-17T11:51:27.000Z,12.96
2023-04-17T11:52:27.000Z,12.94
2023-04-17T11:53:26.000Z,12.93
2023-04-17T11:54:33.000Z,12.96
2023-04-17T11:55:32.000Z,12.96
2023-04-17T11:56:28.000Z,12.96
2023-04-17T11:57:26.000Z,12.99
2023-04-17T11:58:26.000Z,13.00
2023-04-17T11:59:31.000Z,12.99
2023-04-17T12:00:30.000Z,13.01
2023-04-17T12:01:27.000Z,13.01
2023-04-17T12:02:31.000Z,13.04
2023-04-17T12:03:32.000Z,13.03
2023-04-17T12:04:28.000Z,13.04
2023-04-17T12:05:27.000Z,13.03
2023-04-17T12:06:34.000Z,13.04
2023-04-17T12:07:25.000Z,13.03
2023-04-17T12:08:26.000Z,12.99
2023-04-17T12:09:31.000Z,12.96
2023-04-17T12:10:35.000Z,12.88
2023-04-17T12:11:30.000Z,12.91
2023-04-17T12:12:25.000Z,12.88
2023-04-17T12:13:25.000Z,12.86
2023-04-17T12:14:25.000Z,12.86
2023-04-17T12:15:25.000Z,12.87
2023-04-17T12:16:26.000Z,12.87
2023-04-17T12:17:25.000Z,12.86
2023-04-17T12:18:25.000Z,12.87
2023-04-17T12:19:28.000Z,12.86
2023-04-17T12:20:25.000Z,12.87
2023-04-17T12:21:25.000Z,12.88
2023-04-17T12:22:28.000Z,12.86
2023-04-17T12:23:25.000Z,12.90
2023-04-17T12:24:25.000Z,12.87
2023-04-17T12:25:30.000Z,12.93
2023-04-17T12:26:26.000Z,12.90
2023-04-17T12:27:25.000Z,12.93
2023-04-17T12:28:25.000Z,12.94
2023-04-17T12:29:28.000Z,12.93
2023-04-17T12:30:26.000Z,12.96
2023-04-17T12:31:25.000Z,12.93
2023-04-17T12:32:25.000Z,12.93
2023-04-17T12:33:25.000Z,12.99
2023-04-17T12:34:25.000Z,13.06
2023-04-17T12:35:25.000Z,13.01
2023-04-17T12:36:26.000Z,13.01
2023-04-17T12:37:25.000Z,13.01
2023-04-17T12:38:26.000Z,13.04
2023-04-17T12:39:26.000Z,13.08
2023-04-17T12:40:27.000Z,13.10
2023-04-17T12:41:25.000Z,13.13
2023-04-17T12:42:25.000Z,13.15
2023-04-17T12:43:25.000Z,13.20
2023-04-17T12:44:25.000Z,13.20
2023-04-17T12:45:26.000Z,13.22
2023-04-17T12:46:26.000Z,13.30
2023-04-17T12:47:26.000Z,13.25
2023-04-17T12:48:27.000Z,13.22
2023-04-17T12:49:25.000Z,13.25
2023-04-17T12:50:25.000Z,13.28
2023-04-17T12:51:30.000Z,13.32
2023-04-17T12:52:25.000Z,13.32
2023-04-17T12:53:25.000Z,13.31
2023-04-17T12:54:25.000Z,13.28
2023-04-17T12:55:25.000Z,13.25
2023-04-17T12:56:26.000Z,13.27
2023-04-17T12:57:26.000Z,13.30
2023-04-17T12:58:25.000Z,13.31
2023-04-17T12:59:25.000Z,13.30
2023-04-17T13:00:25.000Z,13.34
2023-04-17T13:01:25.000Z,13.28
2023-04-17T13:02:25.000Z,13.25
2023-04-17T13:03:26.000Z,13.25
2023-04-17T13:04:25.000Z,13.24
2023-04-17T13:05:26.000Z,13.25
2023-04-17T13:06:27.000Z,13.25